createdAt,value
2016-10-14T00:05:14.598Z,0
2016-10-14T00:15:28.159Z,0
2016-10-14T00:25:42.707Z,0
2016-10-14T00:35:57.462Z,0
2016-10-14T00:46:12.519Z,0
2016-10-14T00:56:26.510Z,0
2016-10-14T01:06:41.676Z,0
2016-10-14T01:16:56.571Z,0
2016-10-14T01:27:10.392Z,0
2016-10-14T01:37:24.802Z,0
2016-10-14T01:47:38.984Z,0
2016-10-14T01:57:53.456Z,0
2016-10-14T02:08:08.096Z,0
2016-10-14T02:18:22.933Z,0
2016-10-14T02:28:36.610Z,0
2016-10-14T02:38:50.387Z,0
2016-10-14T02:49:04.152Z,0
2016-10-14T02:59:18.405Z,0
2016-10-14T03:09:32.797Z,0
2016-10-14T03:19:48.045Z,0
2016-10-14T03:30:03.269Z,0
2016-10-14T03:40:17.905Z,0
2016-10-14T03:50:33.052Z,0
2016-10-14T04:00:47.337Z,0
2016-10-14T04:11:01.959Z,0
2016-10-14T04:21:16.725Z,0
2016-10-14T04:31:31.960Z,0
2016-10-14T04:41:45.941Z,0
2016-10-14T04:52:00.611Z,0
2016-10-14T05:02:15.845Z,0
2016-10-14T05:12:30.443Z,0
2016-10-14T05:22:45.901Z,0
2016-10-14T05:33:00.465Z,0
2016-10-14T05:43:15.907Z,0
2016-10-14T05:53:30.949Z,0
2016-10-14T06:03:45.435Z,0
2016-10-14T06:13:59.139Z,172
2016-10-14T06:24:12.632Z,284
2016-10-14T06:34:27.013Z,364
2016-10-14T06:44:41.888Z,508
2016-10-14T06:54:57.156Z,588
2016-10-14T07:05:12.236Z,828
2016-10-14T07:15:25.901Z,1344
2016-10-14T07:25:40.004Z,1456
2016-10-14T07:35:53.994Z,2628
2016-10-14T07:46:09.213Z,3180
2016-10-14T07:56:23.194Z,3120
2016-10-14T08:06:37.427Z,4912
2016-10-14T08:16:52.139Z,4532
2016-10-14T08:27:07.440Z,5076
2016-10-14T08:37:20.942Z,3600
2016-10-14T08:47:35.251Z,4020
2016-10-14T08:57:49.873Z,3996
2016-10-14T09:08:04.034Z,5700
2016-10-14T09:18:17.729Z,7008
2016-10-14T09:28:32.344Z,5476
2016-10-14T09:38:46.027Z,5648
2016-10-14T09:49:00.691Z,5780
2016-10-14T09:59:15.664Z,6592
2016-10-14T10:09:30.119Z,23296
2016-10-14T10:19:44.141Z,24352
2016-10-14T10:29:57.636Z,27712
2016-10-14T10:40:11.879Z,25280
2016-10-14T10:50:25.728Z,27072
2016-10-14T11:00:40.199Z,27840
2016-10-14T11:10:55.037Z,26944
2016-10-14T11:21:09.105Z,23168
2016-10-14T11:31:23.440Z,7248
2016-10-14T11:41:37.126Z,10752
2016-10-14T11:51:50.877Z,6792
2016-10-14T12:02:05.166Z,4808
2016-10-14T12:12:19.159Z,4280
2016-10-14T12:22:32.718Z,3656
2016-10-14T12:32:46.680Z,2708
2016-10-14T12:43:02.140Z,2652
2016-10-14T12:53:16.539Z,2400
2016-10-14T13:03:31.069Z,2196
2016-10-14T13:13:45.879Z,1320
2016-10-14T23:36:12.765Z,8
2016-10-14T23:46:27.628Z,4
2016-10-14T23:56:41.555Z,0
